Time;durP1;ratioP1;P1;durP2;ratioP2;P2;SDS_P1;SDS_P2;PMS_P1;PMS_P2;Temp;Humidity;BMP_temperature;BMP_pressure;BME280_temperature;BME280_humidity;BME280_pressure;Samples;Min_cycle;Max_cycle;Signal;HPM_P1;HPM_P2
2022/04/26 03:36:34;;;;;;;5.60;3.25;;;10.20;96.60;;;;;;5056324;28;20032;-73
2022/04/26 03:39:00;;;;;;;9.07;4.35;;;10.10;96.80;;;;;;5055879;28;20021;-73
2022/04/26 03:41:25;;;;;;;10.65;3.72;;;10.10;97.20;;;;;;5055946;28;20062;-74
2022/04/26 03:43:51;;;;;;;4.85;3.03;;;10.10;97.50;;;;;;5055782;28;20028;-74
2022/04/26 03:46:17;;;;;;;11.52;3.38;;;10.10;97.50;;;;;;5056018;28;20071;-74
2022/04/26 03:48:42;;;;;;;6.03;3.75;;;10.20;97.30;;;;;;5055813;28;20029;-74
2022/04/26 03:51:08;;;;;;;8.57;3.85;;;10.20;97.50;;;;;;5055759;28;20017;-74
2022/04/26 03:53:34;;;;;;;8.43;3.95;;;10.10;97.50;;;;;;5055828;28;20492;-74
2022/04/26 03:55:59;;;;;;;9.52;4.65;;;10.00;97.80;;;;;;5055631;28;20493;-74
2022/04/26 03:58:26;;;;;;;7.50;4.00;;;10.00;98.00;;;;;;5055556;28;20029;-74
2022/04/26 04:00:52;;;;;;;6.30;3.53;;;9.90;98.30;;;;;;5055460;28;20094;-74
2022/04/26 04:03:18;;;;;;;11.18;4.07;;;9.90;98.30;;;;;;5055628;28;20029;-73
2022/04/26 04:05:44;;;;;;;9.63;3.50;;;9.90;98.30;;;;;;5055710;28;20047;-73
2022/04/26 04:08:09;;;;;;;10.60;4.80;;;9.90;98.70;;;;;;5055432;28;20025;-73
2022/04/26 04:10:35;;;;;;;11.48;3.80;;;10.00;98.40;;;;;;5055148;28;20048;-73
2022/04/26 04:13:00;;;;;;;10.85;4.53;;;10.00;98.40;;;;;;5055559;28;20033;-73
2022/04/26 04:15:26;;;;;;;7.47;3.65;;;10.00;98.60;;;;;;5070704;28;20462;-73
2022/04/26 04:17:53;;;;;;;8.25;4.07;;;10.00;98.60;;;;;;5055182;28;20025;-73
2022/04/26 04:20:19;;;;;;;10.45;4.22;;;10.00;98.50;;;;;;5055320;28;20029;-73
2022/04/26 04:22:45;;;;;;;9.57;4.07;;;10.00;98.60;;;;;;5054819;28;20410;-73
2022/04/26 04:25:10;;;;;;;10.73;4.38;;;9.90;98.60;;;;;;5055270;28;20025;-73
2022/04/26 04:27:37;;;;;;;6.68;4.43;;;10.00;98.80;;;;;;5055107;28;20036;-73
2022/04/26 04:30:03;;;;;;;12.45;4.88;;;9.90;98.70;;;;;;5055143;28;20028;-73
2022/04/26 04:32:29;;;;;;;9.23;4.57;;;9.80;98.90;;;;;;5054921;28;20377;-73
2022/04/26 04:34:55;;;;;;;9.35;4.30;;;9.90;99.30;;;;;;5055050;28;20021;-73
2022/04/26 04:37:22;;;;;;;12.95;4.95;;;9.80;99.10;;;;;;5054853;28;20025;-73
2022/04/26 04:39:51;;;;;;;9.70;4.43;;;9.80;99.10;;;;;;5054924;28;20063;-73
2022/04/26 04:42:17;;;;;;;9.73;4.40;;;9.70;99.20;;;;;;5053984;28;20090;-73
2022/04/26 04:44:43;;;;;;;8.07;4.30;;;9.80;99.10;;;;;;5054596;28;20031;-73
2022/04/26 04:47:09;;;;;;;8.57;4.40;;;9.80;99.30;;;;;;5054825;28;20111;-73
2022/04/26 04:49:35;;;;;;;7.13;3.88;;;9.90;99.50;;;;;;5054677;28;20025;-73
2022/04/26 04:52:00;;;;;;;7.78;4.32;;;10.00;99.20;;;;;;5054686;28;20107;-73
2022/04/26 04:54:26;;;;;;;16.60;5.30;;;10.10;99.10;;;;;;5054306;28;20021;-73
2022/04/26 04:56:51;;;;;;;9.70;4.53;;;10.00;98.80;;;;;;5054569;28;20052;-73
2022/04/26 04:59:17;;;;;;;12.35;4.47;;;10.00;99.10;;;;;;5054472;28;20048;-72
2022/04/26 05:01:43;;;;;;;8.05;4.13;;;10.20;99.30;;;;;;5054368;28;20033;-78
2022/04/26 05:04:08;;;;;;;11.98;4.18;;;10.40;99.30;;;;;;5054527;28;20037;-75
2022/04/26 05:06:34;;;;;;;8.52;4.18;;;10.50;98.80;;;;;;5054098;28;20128;-75
2022/04/26 05:09:00;;;;;;;14.52;6.50;;;10.60;98.40;;;;;;5054408;28;20401;-74
2022/04/26 05:11:26;;;;;;;13.05;5.75;;;10.50;97.90;;;;;;5054314;28;20481;-73
2022/04/26 05:13:51;;;;;;;9.13;5.45;;;10.20;98.40;;;;;;5053786;28;20120;-72
2022/04/26 05:16:17;;;;;;;9.32;4.95;;;10.10;98.90;;;;;;5054122;28;20024;-72
2022/04/26 05:18:42;;;;;;;17.13;6.43;;;10.20;99.10;;;;;;5053810;28;20017;-73
2022/04/26 05:21:09;;;;;;;10.48;5.20;;;10.30;98.80;;;;;;5053677;28;20484;-77
2022/04/26 05:26:19;;;;;;;10.13;6.15;;;10.30;98.30;;;;;;5053807;28;20040;-76
2022/04/26 05:28:45;;;;;;;14.32;6.38;;;10.20;98.60;;;;;;5053737;28;20024;-76
2022/04/26 05:31:11;;;;;;;12.52;6.45;;;10.20;98.80;;;;;;5053352;28;20029;-76
2022/04/26 05:33:36;;;;;;;13.73;6.50;;;10.30;98.80;;;;;;5053393;28;20025;-76
2022/04/26 05:36:03;;;;;;;12.40;7.15;;;10.30;98.50;;;;;;5052554;28;20040;-76
2022/04/26 05:38:29;;;;;;;14.10;7.75;;;10.30;98.30;;;;;;5053475;28;20021;-76
2022/04/26 05:40:54;;;;;;;9.15;5.90;;;10.10;98.60;;;;;;5053121;28;20112;-76
2022/04/26 05:43:20;;;;;;;11.70;7.90;;;10.00;99.10;;;;;;5053056;28;20029;-76
2022/04/26 05:45:46;;;;;;;15.18;7.50;;;10.10;98.90;;;;;;5053158;28;20027;-76
2022/04/26 05:48:13;;;;;;;8.35;5.38;;;10.20;98.90;;;;;;5053089;28;20056;-76
2022/04/26 05:50:39;;;;;;;12.63;7.22;;;10.20;98.70;;;;;;5053068;28;20025;-76
2022/04/26 05:53:05;;;;;;;12.70;7.13;;;10.30;98.50;;;;;;5053329;28;20050;-75
2022/04/26 05:55:30;;;;;;;12.48;7.25;;;10.30;98.50;;;;;;5053303;28;20050;-74
2022/04/26 05:57:56;;;;;;;16.80;7.55;;;10.30;98.40;;;;;;5053205;28;20056;-73
2022/04/26 06:00:22;;;;;;;12.63;6.65;;;10.30;98.50;;;;;;5053019;28;20074;-75
2022/04/26 06:02:48;;;;;;;14.73;7.40;;;10.40;98.50;;;;;;5053207;28;20464;-76
2022/04/26 06:05:14;;;;;;;13.35;7.70;;;10.40;98.20;;;;;;5053133;28;20052;-75
2022/04/26 06:07:40;;;;;;;15.43;6.82;;;10.40;98.10;;;;;;5052771;28;20114;-75
2022/04/26 06:10:06;;;;;;;15.73;8.18;;;10.40;98.20;;;;;;5052713;28;20044;-75
2022/04/26 06:12:33;;;;;;;14.48;6.57;;;10.40;98.20;;;;;;5052841;28;20017;-75
2022/04/26 06:14:59;;;;;;;12.05;6.57;;;10.40;98.60;;;;;;5053004;28;20063;-74
2022/04/26 06:17:25;;;;;;;16.63;6.78;;;10.50;98.40;;;;;;5052598;28;20388;-75
2022/04/26 06:19:51;;;;;;;13.75;7.13;;;10.50;98.20;;;;;;5052887;28;20029;-75
2022/04/26 06:22:17;;;;;;;11.90;5.82;;;10.60;98.30;;;;;;5053027;28;20032;-75
2022/04/26 06:24:43;;;;;;;17.30;6.90;;;10.80;98.20;;;;;;5053212;28;20021;-74
2022/04/26 06:27:08;;;;;;;14.27;6.13;;;10.80;97.70;;;;;;5053312;28;20029;-75
2022/04/26 06:29:34;;;;;;;12.55;5.80;;;10.90;97.60;;;;;;5052530;28;20028;-75
2022/04/26 06:32:01;;;;;;;18.27;6.72;;;10.90;97.30;;;;;;5052938;28;20053;-75
2022/04/26 06:34:26;;;;;;;13.05;5.78;;;11.10;97.50;;;;;;5052644;28;20017;-75
2022/04/26 06:36:52;;;;;;;16.20;6.38;;;11.20;97.10;;;;;;5052926;28;20365;-75
2022/04/26 06:39:18;;;;;;;14.05;6.22;;;11.20;96.90;;;;;;5053012;28;20449;-76
2022/04/26 06:41:43;;;;;;;14.80;6.57;;;11.30;96.60;;;;;;5052703;28;20126;-76
2022/04/26 06:44:09;;;;;;;12.63;5.35;;;11.10;96.50;;;;;;5052827;28;20056;-76
2022/04/26 06:46:36;;;;;;;14.88;6.50;;;10.90;96.80;;;;;;5054944;28;20025;-76
2022/04/26 06:49:02;;;;;;;15.85;6.45;;;11.00;97.10;;;;;;5056226;28;20392;-75
2022/04/26 06:51:33;;;;;;;9.88;4.43;;;11.00;97.00;;;;;;5056789;28;20024;-76
2022/04/26 06:53:58;;;;;;;12.57;5.10;;;11.10;97.00;;;;;;5056415;28;20099;-75
2022/04/26 06:56:24;;;;;;;9.43;5.18;;;11.30;96.80;;;;;;5056552;28;20063;-75
2022/04/26 06:58:50;;;;;;;8.48;4.90;;;11.40;96.40;;;;;;5056506;28;20444;-75
2022/04/26 07:01:15;;;;;;;10.43;4.43;;;11.50;96.30;;;;;;5056603;28;20037;-76
2022/04/26 07:03:41;;;;;;;13.50;5.53;;;11.60;96.10;;;;;;5056244;28;20029;-76
2022/04/26 07:06:07;;;;;;;8.93;4.40;;;11.70;95.80;;;;;;5055992;28;20028;-75
2022/04/26 07:08:32;;;;;;;13.75;5.00;;;11.90;95.70;;;;;;5056458;28;20025;-74
2022/04/26 07:10:58;;;;;;;14.07;4.57;;;11.90;95.40;;;;;;5056092;28;20131;-74
2022/04/26 07:13:23;;;;;;;12.85;5.45;;;12.00;95.10;;;;;;5055974;28;20067;-75
2022/04/26 07:15:49;;;;;;;10.88;5.10;;;12.00;94.90;;;;;;5056288;28;20021;-74
2022/04/26 07:18:15;;;;;;;14.32;6.22;;;12.10;94.80;;;;;;5056197;28;20071;-74
2022/04/26 07:20:44;;;;;;;11.20;4.93;;;12.00;94.60;;;;;;5056000;28;20051;-74
2022/04/26 07:23:12;;;;;;;13.50;5.68;;;11.90;94.70;;;;;;5055815;28;20480;-74
2022/04/26 07:25:39;;;;;;;12.45;6.05;;;11.90;94.80;;;;;;5055837;28;20159;-74
2022/04/26 07:28:05;;;;;;;11.52;5.40;;;11.80;94.70;;;;;;5056605;28;20166;-74
2022/04/26 07:30:34;;;;;;;17.77;6.22;;;11.70;94.80;;;;;;5055967;28;20024;-74
2022/04/26 07:35:53;;;;;;;11.85;4.90;;;11.60;94.80;;;;;;5056188;28;20063;-75
2022/04/26 07:38:19;;;;;;;10.38;4.57;;;11.60;94.90;;;;;;5055816;28;20025;-75
2022/04/26 07:40:45;;;;;;;16.65;5.43;;;11.70;94.90;;;;;;5055778;28;20032;-74
2022/04/26 07:43:11;;;;;;;11.15;4.40;;;11.90;95.00;;;;;;5055973;28;20036;-74
2022/04/26 07:45:38;;;;;;;12.20;5.03;;;12.00;94.90;;;;;;5055557;28;20021;-76
2022/04/26 07:48:05;;;;;;;18.13;5.55;;;12.00;94.50;;;;;;5055466;28;20025;-76
2022/04/26 07:50:32;;;;;;;14.93;5.20;;;12.00;94.20;;;;;;5055367;28;20395;-75
2022/04/26 07:52:59;;;;;;;16.52;5.30;;;11.90;94.20;;;;;;5055427;28;20547;-75
2022/04/26 07:55:25;;;;;;;13.55;5.93;;;11.90;94.30;;;;;;5055273;28;20152;-75
2022/04/26 07:57:50;;;;;;;13.00;5.65;;;11.60;94.60;;;;;;5054682;28;20124;-74
2022/04/26 08:00:16;;;;;;;11.52;5.50;;;11.40;95.10;;;;;;5055690;28;20028;-75
2022/04/26 08:02:42;;;;;;;12.80;5.70;;;11.20;95.60;;;;;;5055199;28;20037;-75
2022/04/26 08:05:08;;;;;;;15.63;6.15;;;11.10;95.80;;;;;;5055186;28;20028;-74
2022/04/26 08:07:39;;;;;;;11.80;4.85;;;11.10;95.90;;;;;;5055174;28;20059;-73
2022/04/26 08:10:14;;;;;;;10.52;5.05;;;11.20;96.30;;;;;;5054835;28;20048;-74
2022/04/26 08:12:40;;;;;;;15.65;5.20;;;11.40;96.00;;;;;;5055169;28;20025;-73
2022/04/26 08:15:07;;;;;;;9.98;4.90;;;11.50;95.50;;;;;;5055119;28;20017;-73
2022/04/26 08:17:33;;;;;;;9.32;4.18;;;11.60;95.20;;;;;;5054937;28;20090;-73
2022/04/26 08:19:58;;;;;;;10.98;4.03;;;11.60;94.50;;;;;;5055255;28;20048;-73
2022/04/26 08:22:24;;;;;;;10.90;4.05;;;11.80;94.60;;;;;;5056141;28;20063;-73
2022/04/26 08:27:34;;;;;;;15.02;4.15;;;12.00;93.20;;;;;;5055784;28;20112;-73
2022/04/26 08:30:05;;;;;;;10.38;4.18;;;12.30;93.90;;;;;;5055450;28;20037;-73
2022/04/26 08:32:45;;;;;;;7.70;3.30;;;12.60;93.40;;;;;;5055027;28;20047;-74
2022/04/26 08:35:12;;;;;;;10.82;3.53;;;12.80;92.10;;;;;;5054922;28;20390;-73
2022/04/26 08:37:38;;;;;;;8.63;3.33;;;12.90;91.40;;;;;;5054697;28;20036;-74
2022/04/26 08:40:07;;;;;;;10.70;3.10;;;13.10;90.50;;;;;;5054745;28;20372;-74
2022/04/26 08:42:41;;;;;;;7.65;2.67;;;13.20;88.10;;;;;;5054446;28;20522;-74
2022/04/26 08:45:08;;;;;;;6.68;2.40;;;13.20;85.70;;;;;;5054190;28;20021;-73
2022/04/26 08:53:05;;;;;;;9.70;2.67;;;13.60;82.00;;;;;;5054545;28;20051;-74
2022/04/26 08:55:39;;;;;;;6.85;2.33;;;13.70;80.60;;;;;;5054625;28;20484;-73
2022/04/26 08:58:06;;;;;;;11.25;2.92;;;13.80;81.00;;;;;;5054766;28;20496;-74
2022/04/26 09:00:32;;;;;;;6.35;2.72;;;14.00;80.10;;;;;;5054257;28;20040;-74
2022/04/26 09:03:03;;;;;;;5.07;2.05;;;14.10;76.70;;;;;;5053853;28;20021;-74
2022/04/26 09:05:29;;;;;;;4.80;2.20;;;14.10;78.10;;;;;;5054088;28;20036;-73
2022/04/26 09:07:54;;;;;;;4.65;2.25;;;14.30;75.80;;;;;;5054019;28;20027;-74
2022/04/26 09:10:21;;;;;;;3.90;2.10;;;14.30;76.30;;;;;;5053697;28;20045;-74
2022/04/26 09:13:04;;;;;;;7.57;2.75;;;14.50;78.80;;;;;;5053743;28;20107;-74
2022/04/26 09:15:43;;;;;;;5.18;2.15;;;14.80;76.10;;;;;;5053778;28;20032;-74
2022/04/26 09:18:21;;;;;;;5.53;2.30;;;14.90;75.10;;;;;;5054004;28;20048;-74
2022/04/26 09:20:49;;;;;;;10.50;3.00;;;14.90;70.70;;;;;;5053938;28;20460;-74
2022/04/26 09:23:16;;;;;;;7.90;3.00;;;14.80;68.20;;;;;;5053744;28;20107;-74
2022/04/26 09:25:42;;;;;;;7.63;2.72;;;14.70;67.60;;;;;;5053803;28;20021;-74
2022/04/26 09:28:08;;;;;;;4.78;2.40;;;14.80;68.50;;;;;;5053800;28;20025;-74
2022/04/26 09:30:35;;;;;;;4.97;2.50;;;14.80;68.60;;;;;;5054289;28;20082;-74
2022/04/26 09:33:00;;;;;;;5.78;2.50;;;15.00;67.40;;;;;;5053735;28;20060;-74
2022/04/26 09:35:32;;;;;;;5.32;2.17;;;15.00;66.90;;;;;;5053765;28;20050;-74
2022/04/26 09:37:59;;;;;;;5.53;2.10;;;15.10;64.30;;;;;;5053663;28;20079;-74
2022/04/26 09:40:35;;;;;;;6.82;2.03;;;15.00;64.40;;;;;;5053429;28;20472;-74
2022/04/26 09:43:01;;;;;;;4.10;1.90;;;14.90;62.80;;;;;;5053602;28;20037;-74
2022/04/26 09:45:26;;;;;;;5.55;1.83;;;14.90;64.50;;;;;;5053607;28;20028;-73
2022/04/26 09:47:57;;;;;;;3.45;1.50;;;15.10;65.10;;;;;;5053706;28;20024;-74
2022/04/26 09:50:24;;;;;;;5.13;1.73;;;15.10;65.60;;;;;;5053094;28;20383;-74
2022/04/26 09:52:50;;;;;;;4.13;1.40;;;15.30;64.80;;;;;;5053489;28;20027;-74
2022/04/26 09:55:15;;;;;;;5.72;2.15;;;15.40;64.20;;;;;;5053347;28;20111;-74
2022/04/26 09:57:43;;;;;;;3.72;1.83;;;15.60;64.90;;;;;;5053158;28;20025;-74
2022/04/26 10:00:11;;;;;;;8.40;2.72;;;15.70;64.40;;;;;;5053402;28;20029;-74
2022/04/26 10:02:41;;;;;;;6.85;1.95;;;15.70;65.00;;;;;;5052769;28;20519;-74
2022/04/26 10:05:08;;;;;;;3.42;2.05;;;15.70;66.90;;;;;;5052996;28;20385;-74
2022/04/26 10:07:43;;;;;;;7.05;2.45;;;15.90;65.90;;;;;;5052959;28;20025;-74
2022/04/26 10:10:09;;;;;;;4.53;2.00;;;16.10;66.00;;;;;;5052462;28;20044;-74
2022/04/26 10:12:35;;;;;;;3.75;1.90;;;16.10;61.90;;;;;;5053023;28;20035;-74
2022/04/26 10:15:03;;;;;;;9.93;2.40;;;15.90;63.70;;;;;;5052879;28;20039;-74
2022/04/26 10:17:32;;;;;;;6.90;2.20;;;16.00;65.60;;;;;;5052832;28;20028;-74
2022/04/26 10:19:59;;;;;;;6.05;2.40;;;16.00;65.80;;;;;;5052692;28;20025;-74
2022/04/26 10:22:53;;;;;;;7.18;2.90;;;15.90;66.40;;;;;;5052722;28;20033;-74
2022/04/26 10:25:21;;;;;;;6.15;2.47;;;16.00;68.40;;;;;;5052922;28;20029;-74
2022/04/26 10:28:28;;;;;;;9.52;2.42;;;16.00;65.70;;;;;;5052695;28;20075;-74
2022/04/26 10:30:55;;;;;;;4.85;2.08;;;15.90;66.30;;;;;;5053292;28;20036;-74
2022/04/26 10:33:42;;;;;;;4.95;2.28;;;15.80;66.00;;;;;;5052656;28;20025;-74
2022/04/26 10:36:33;;;;;;;5.85;2.30;;;15.80;67.00;;;;;;5052737;28;20025;-74
2022/04/26 10:39:12;;;;;;;4.03;2.00;;;15.70;66.60;;;;;;5052802;28;20029;-74
2022/04/26 10:41:47;;;;;;;7.57;2.10;;;15.80;66.80;;;;;;5052878;28;20132;-74
2022/04/26 10:44:12;;;;;;;5.28;2.30;;;15.70;64.20;;;;;;5052437;28;20075;-74
2022/04/26 10:46:42;;;;;;;5.68;2.03;;;15.40;65.20;;;;;;5052619;28;20021;-74
2022/04/26 10:49:23;;;;;;;9.82;2.55;;;15.50;65.60;;;;;;5053011;28;20060;-74
2022/04/26 10:51:53;;;;;;;4.43;2.05;;;15.50;63.70;;;;;;5052550;28;20100;-74
2022/04/26 10:54:43;;;;;;;4.53;1.73;;;15.30;64.30;;;;;;5052891;28;20079;-74
2022/04/26 10:57:09;;;;;;;4.35;2.20;;;15.40;64.90;;;;;;5051840;28;20767;-74
2022/04/26 10:59:41;;;;;;;5.95;2.40;;;15.50;63.40;;;;;;5052533;28;20108;-74
2022/04/26 11:02:14;;;;;;;5.43;1.88;;;15.50;62.60;;;;;;5052627;28;20479;-74
2022/04/26 11:04:40;;;;;;;5.82;2.42;;;15.50;63.00;;;;;;5052709;28;20104;-74
2022/04/26 11:07:18;;;;;;;4.30;2.10;;;15.50;62.90;;;;;;5052675;28;20515;-73
2022/04/26 11:09:53;;;;;;;3.28;1.92;;;15.60;61.50;;;;;;5052217;28;20044;-74
2022/04/26 11:12:27;;;;;;;3.00;1.70;;;15.60;60.00;;;;;;5052702;28;20048;-74
2022/04/26 11:14:55;;;;;;;4.70;2.10;;;15.60;59.90;;;;;;5052850;28;20025;-74
2022/04/26 11:17:22;;;;;;;2.83;1.60;;;15.50;59.70;;;;;;5052687;28;20060;-74
2022/04/26 11:19:51;;;;;;;7.03;1.63;;;15.40;61.00;;;;;;5052071;28;20545;-74
2022/04/26 11:22:18;;;;;;;6.38;2.50;;;15.40;60.60;;;;;;5067557;28;20041;-74
2022/04/26 11:30:31;;;;;;;6.22;2.22;;;15.80;62.20;;;;;;5052756;28;20055;-74
2022/04/26 11:33:06;;;;;;;5.85;2.70;;;15.50;61.30;;;;;;5053708;28;20028;-74
2022/04/26 11:35:34;;;;;;;7.25;2.60;;;15.20;62.60;;;;;;5055867;28;20031;-74
2022/04/26 11:38:08;;;;;;;8.07;2.40;;;15.10;62.80;;;;;;5056051;28;20029;-74
2022/04/26 11:40:38;;;;;;;6.57;2.45;;;15.10;63.70;;;;;;5055942;28;20091;-73
2022/04/26 11:43:18;;;;;;;4.28;2.20;;;15.30;63.90;;;;;;5056011;28;20086;-73
2022/04/26 11:45:46;;;;;;;4.75;2.65;;;15.60;63.90;;;;;;5055418;28;20032;-74
2022/04/26 11:48:16;;;;;;;8.50;2.70;;;15.50;63.10;;;;;;5055854;28;20388;-73
2022/04/26 11:50:44;;;;;;;6.22;3.28;;;15.50;64.20;;;;;;5055873;28;20021;-74
2022/04/26 11:53:11;;;;;;;8.27;2.95;;;15.70;64.50;;;;;;5055715;28;20036;-74
2022/04/26 11:55:45;;;;;;;5.13;2.30;;;15.60;62.80;;;;;;5055703;28;20025;-74
2022/04/26 11:58:32;;;;;;;6.80;2.58;;;15.60;63.70;;;;;;5055758;28;20029;-74
2022/04/26 12:01:10;;;;;;;5.93;2.00;;;16.00;65.70;;;;;;5055305;28;20048;-73
2022/04/26 12:03:43;;;;;;;3.95;1.90;;;16.20;63.60;;;;;;5055585;28;20033;-74
2022/04/26 12:06:10;;;;;;;4.03;2.10;;;16.30;63.60;;;;;;5055239;28;20071;-74
2022/04/26 12:08:40;;;;;;;5.22;2.67;;;16.60;62.50;;;;;;5055343;28;20086;-74
2022/04/26 12:11:26;;;;;;;7.13;1.98;;;16.60;61.30;;;;;;5054830;28;20420;-74
2022/04/26 12:14:11;;;;;;;5.85;2.80;;;16.60;62.40;;;;;;5055467;28;20033;-74
2022/04/26 12:16:40;;;;;;;4.75;2.13;;;16.90;61.40;;;;;;5054909;28;20528;-74
2022/04/26 12:19:06;;;;;;;6.78;2.40;;;17.00;59.70;;;;;;5055003;28;20480;-74
2022/04/26 12:21:52;;;;;;;4.85;2.00;;;16.90;61.20;;;;;;5054774;28;20121;-73
2022/04/26 12:24:23;;;;;;;6.72;3.45;;;17.10;60.90;;;;;;5054935;28;20474;-74
2022/04/26 12:27:02;;;;;;;5.03;1.98;;;17.20;59.80;;;;;;5055234;28;20025;-74
2022/04/26 12:29:42;;;;;;;4.55;1.90;;;17.20;61.10;;;;;;5054955;28;20113;-74
2022/04/26 12:32:13;;;;;;;4.15;1.88;;;17.50;60.30;;;;;;5055526;28;20021;-74
2022/04/26 12:34:55;;;;;;;4.10;2.40;;;17.70;59.00;;;;;;5054929;28;20107;-74
2022/04/26 12:37:27;;;;;;;5.10;2.15;;;17.60;57.60;;;;;;5055042;28;20060;-73
2022/04/26 12:39:55;;;;;;;3.55;2.22;;;17.60;58.70;;;;;;5054833;28;20028;-74
2022/04/26 12:42:26;;;;;;;5.63;2.00;;;17.70;58.00;;;;;;5054817;28;20112;-74
2022/04/26 12:45:01;;;;;;;4.53;1.70;;;17.90;57.00;;;;;;5054057;28;20472;-73
2022/04/26 12:50:35;;;;;;;3.33;1.63;;;17.70;58.90;;;;;;5054438;28;20035;-74
2022/04/26 12:53:02;;;;;;;4.07;1.88;;;18.00;57.20;;;;;;5054714;28;20028;-74
2022/04/26 12:55:42;;;;;;;3.35;1.33;;;18.10;55.80;;;;;;5054602;28;20079;-74
2022/04/26 12:58:09;;;;;;;2.35;1.05;;;18.00;56.10;;;;;;5054306;28;20025;-74
2022/04/26 13:00:46;;;;;;;5.88;1.67;;;18.30;57.80;;;;;;5053874;28;20023;-74
2022/04/26 13:03:15;;;;;;;4.28;1.48;;;18.60;56.60;;;;;;5054454;28;20136;-74
2022/04/26 13:05:46;;;;;;;2.50;1.10;;;18.80;55.20;;;;;;5054316;28;20028;-74
2022/04/26 13:08:17;;;;;;;5.03;1.67;;;18.90;55.10;;;;;;5054161;28;20053;-73
2022/04/26 13:10:44;;;;;;;3.92;1.20;;;18.80;53.40;;;;;;5054043;28;20098;-74
2022/04/26 13:13:11;;;;;;;5.97;1.58;;;18.60;55.10;;;;;;5054036;28;20095;-74
2022/04/26 13:15:37;;;;;;;4.03;1.20;;;18.70;55.40;;;;;;5054306;28;20021;-74
2022/04/26 13:18:04;;;;;;;5.30;1.85;;;18.80;56.00;;;;;;5054146;28;20033;-74
2022/04/26 13:20:31;;;;;;;3.83;1.40;;;19.00;56.30;;;;;;5053854;28;20419;-74
2022/04/26 13:22:56;;;;;;;3.00;1.35;;;19.00;52.70;;;;;;5054199;28;20051;-74
2022/04/26 13:25:22;;;;;;;1.88;0.90;;;18.80;52.30;;;;;;5053690;28;20017;-74
2022/04/26 13:27:48;;;;;;;2.80;1.30;;;18.70;52.70;;;;;;5053746;28;20116;-74
2022/04/26 13:30:15;;;;;;;3.30;1.30;;;18.70;52.60;;;;;;5054172;28;20090;-74
2022/04/26 13:32:41;;;;;;;2.42;1.52;;;18.70;52.40;;;;;;5054383;28;20021;-74
2022/04/26 13:35:07;;;;;;;4.93;1.10;;;18.60;52.50;;;;;;5054237;28;20029;-74
2022/04/26 13:37:34;;;;;;;2.50;1.40;;;18.50;51.80;;;;;;5053681;28;20037;-74
2022/04/26 13:40:01;;;;;;;4.05;1.30;;;18.10;51.90;;;;;;5053608;28;20031;-74
2022/04/26 13:42:27;;;;;;;3.05;1.42;;;18.00;53.60;;;;;;5053633;28;20037;-74
2022/04/26 13:44:57;;;;;;;3.33;1.40;;;18.10;53.50;;;;;;5053349;28;20056;-74
2022/04/26 13:47:23;;;;;;;6.88;1.45;;;18.00;52.60;;;;;;5053621;28;20029;-74
2022/04/26 13:49:49;;;;;;;3.03;1.20;;;17.70;51.80;;;;;;5053498;28;20025;-74
2022/04/26 13:52:15;;;;;;;6.68;1.52;;;17.50;53.20;;;;;;5053347;28;20071;-74
2022/04/26 13:54:44;;;;;;;3.35;1.17;;;17.60;54.20;;;;;;5052983;28;20025;-74
2022/04/26 13:57:10;;;;;;;6.28;1.65;;;17.80;52.90;;;;;;5052634;28;20033;-74
2022/04/26 13:59:36;;;;;;;4.20;1.08;;;17.60;51.60;;;;;;5053324;28;20021;-74
2022/04/26 14:02:04;;;;;;;3.72;1.10;;;17.40;52.40;;;;;;5053271;28;20037;-74
2022/04/26 14:04:29;;;;;;;4.18;0.90;;;17.50;53.80;;;;;;5052858;28;20032;-74
2022/04/26 14:06:55;;;;;;;5.72;1.30;;;17.80;53.20;;;;;;5053170;28;20029;-74
2022/04/26 14:09:23;;;;;;;2.13;0.98;;;18.20;53.50;;;;;;5053141;28;20481;-74
2022/04/26 14:11:51;;;;;;;2.42;1.10;;;18.60;52.60;;;;;;5052941;28;20495;-74
2022/04/26 14:22:32;;;;;;;3.45;1.40;;;19.00;50.80;;;;;;5052937;28;20072;-74
2022/04/26 14:25:04;;;;;;;3.08;1.15;;;19.20;50.40;;;;;;5053011;28;20029;-74
2022/04/26 14:27:31;;;;;;;3.28;1.10;;;19.00;50.30;;;;;;5052775;28;20481;-74
2022/04/26 14:29:57;;;;;;;3.08;1.35;;;19.00;51.90;;;;;;5052941;28;20020;-74
2022/04/26 14:32:23;;;;;;;3.00;0.98;;;19.00;50.50;;;;;;5060771;28;20086;-74
2022/04/26 14:34:49;;;;;;;4.15;1.60;;;19.10;51.40;;;;;;5072377;28;20029;-73
2022/04/26 14:37:15;;;;;;;4.05;1.45;;;19.00;50.60;;;;;;5071765;28;20024;-74
2022/04/26 14:39:41;;;;;;;3.00;1.27;;;18.60;51.30;;;;;;5071066;28;20024;-74
2022/04/26 14:42:08;;;;;;;2.80;1.10;;;18.60;52.40;;;;;;5071149;28;20039;-75
2022/04/26 14:44:34;;;;;;;3.10;0.93;;;18.70;51.70;;;;;;5071219;28;20025;-74
2022/04/26 14:47:01;;;;;;;4.70;1.38;;;18.90;52.10;;;;;;5071206;28;20392;-78
2022/04/26 14:49:30;;;;;;;2.08;1.00;;;19.00;51.30;;;;;;5071852;28;20043;-74
2022/04/26 14:51:56;;;;;;;4.70;1.00;;;19.00;51.20;;;;;;5071584;28;20020;-74
2022/04/26 14:54:22;;;;;;;3.22;1.30;;;19.00;51.30;;;;;;5072825;28;20023;-74
2022/04/26 14:56:48;;;;;;;6.20;2.25;;;19.00;51.10;;;;;;5073053;28;20090;-74
2022/04/26 14:59:17;;;;;;;3.22;1.63;;;19.10;51.70;;;;;;5072699;28;20017;-74
2022/04/26 15:01:49;;;;;;;3.50;1.35;;;19.10;51.60;;;;;;5072044;28;20036;-74
2022/04/26 15:04:15;;;;;;;3.08;0.90;;;19.10;51.20;;;;;;5072992;28;20020;-74
2022/04/26 15:06:41;;;;;;;2.20;1.35;;;19.00;51.50;;;;;;5073183;28;20086;-74
2022/04/26 15:16:37;;;;;;;3.80;1.20;;;18.50;51.70;;;;;;5076158;28;20502;-74
2022/04/26 15:17:21;;;;;;;3.72;0.80;;;18.40;53.00;;;;;;5076427;28;20058;-74
2022/04/26 15:19:48;;;;;;;5.38;1.33;;;18.50;53.40;;;;;;5076542;28;20395;-74
2022/04/26 15:22:14;;;;;;;3.22;1.38;;;18.60;53.10;;;;;;5075751;28;20472;-74
2022/04/26 15:24:40;;;;;;;2.72;1.35;;;18.60;52.70;;;;;;5076445;28;20054;-74
2022/04/26 15:27:06;;;;;;;4.38;1.23;;;18.60;52.70;;;;;;5075949;28;20468;-74
2022/04/26 15:29:32;;;;;;;4.95;1.40;;;18.50;53.10;;;;;;5076211;28;20025;-74
2022/04/26 15:31:57;;;;;;;5.68;1.35;;;18.40;52.60;;;;;;5076088;28;20052;-74
2022/04/26 15:34:23;;;;;;;3.35;1.40;;;18.30;53.10;;;;;;5076415;28;20042;-74
2022/04/26 15:36:49;;;;;;;3.42;1.13;;;18.20;53.10;;;;;;5076805;28;20032;-74
2022/04/26 15:39:14;;;;;;;2.22;1.00;;;18.00;53.30;;;;;;5076256;28;20029;-74
2022/04/26 15:41:40;;;;;;;4.85;1.25;;;18.10;52.60;;;;;;5075611;28;20093;-74
2022/04/26 15:44:06;;;;;;;4.43;1.02;;;18.00;52.20;;;;;;5075881;28;20021;-75
2022/04/26 15:46:31;;;;;;;3.25;1.17;;;18.00;52.60;;;;;;5075849;28;20085;-75
2022/04/26 15:48:57;;;;;;;3.67;1.40;;;18.00;53.00;;;;;;5075953;28;20024;-75
2022/04/26 15:51:25;;;;;;;2.20;1.17;;;17.90;53.60;;;;;;5075446;28;20020;-75
2022/04/26 15:53:51;;;;;;;4.43;1.60;;;17.80;53.70;;;;;;5075556;28;20028;-73
2022/04/26 15:56:16;;;;;;;3.50;1.10;;;17.80;53.20;;;;;;5075761;28;20025;-73
2022/04/26 15:58:42;;;;;;;3.05;1.10;;;17.80;53.80;;;;;;5075791;28;20051;-73
2022/04/26 16:01:09;;;;;;;1.98;0.85;;;17.80;53.80;;;;;;5075726;28;20056;-73
2022/04/26 16:03:35;;;;;;;4.47;1.50;;;17.80;53.10;;;;;;5075262;28;20384;-73
2022/04/26 16:06:01;;;;;;;3.47;0.98;;;17.80;53.30;;;;;;5075279;28;20108;-74
2022/04/26 16:08:26;;;;;;;6.05;1.10;;;17.80;53.30;;;;;;5075299;28;20111;-73
2022/04/26 16:21:50;;;;;;;2.63;1.23;;;17.70;52.60;;;;;;5075048;28;20408;-74
2022/04/26 16:24:17;;;;;;;4.47;1.10;;;17.60;53.50;;;;;;5075090;28;20577;-74
2022/04/26 16:26:43;;;;;;;3.17;1.10;;;17.50;53.50;;;;;;5074753;28;20032;-74
2022/04/26 16:29:09;;;;;;;4.80;1.42;;;17.50;54.10;;;;;;5074974;28;20044;-74
2022/04/26 16:31:34;;;;;;;2.80;0.98;;;17.50;53.80;;;;;;5075001;28;20098;-73
2022/04/26 16:34:02;;;;;;;3.33;1.02;;;17.60;53.90;;;;;;5074884;28;20028;-74
2022/04/26 16:36:31;;;;;;;3.92;1.40;;;17.50;53.00;;;;;;5075655;28;20017;-73
2022/04/26 16:38:58;;;;;;;3.92;1.45;;;17.30;53.60;;;;;;5075153;28;20112;-73
2022/04/26 16:41:24;;;;;;;3.28;1.20;;;17.00;53.50;;;;;;5074528;28;20036;-73
2022/04/26 16:43:50;;;;;;;2.60;1.10;;;16.50;54.30;;;;;;5074623;28;20025;-73
2022/04/26 16:46:17;;;;;;;4.43;1.10;;;16.50;54.70;;;;;;5074596;28;20027;-73
2022/04/26 16:48:43;;;;;;;2.63;1.27;;;16.40;54.30;;;;;;5074609;28;20067;-73
2022/04/26 16:51:09;;;;;;;3.03;1.42;;;16.30;54.60;;;;;;5074130;28;20029;-73
2022/04/26 16:53:35;;;;;;;4.78;1.38;;;16.30;54.80;;;;;;5074516;28;20029;-73
2022/04/26 16:56:01;;;;;;;2.70;1.25;;;16.40;54.90;;;;;;5074037;28;20036;-74
2022/04/26 16:58:27;;;;;;;5.30;1.10;;;16.40;54.50;;;;;;5074690;28;20016;-73
2022/04/26 17:00:52;;;;;;;4.65;1.00;;;16.30;54.30;;;;;;5074449;28;20387;-73
2022/04/26 17:03:18;;;;;;;1.80;0.90;;;16.30;54.50;;;;;;5074042;28;20029;-73
2022/04/26 17:05:48;;;;;;;3.85;0.85;;;16.20;54.40;;;;;;5074239;28;20031;-73
2022/04/26 17:08:15;;;;;;;2.95;1.08;;;16.20;54.40;;;;;;5074355;28;20028;-74
2022/04/26 17:10:41;;;;;;;3.38;0.82;;;15.90;55.10;;;;;;5073944;28;20487;-73
2022/04/26 17:13:07;;;;;;;2.50;1.35;;;15.90;55.50;;;;;;5074260;28;20031;-73